Varamar — CURZ9 — position and weather

sailwx.info

Track history (hours):
 
Tides and Currents Weather Stations Pressure Air Temp Water Temp Dewpoint Dewpoint Depression Visibility Wind Speed Wind Dir Waves Ship Positions

Varamar

Last reported at 2017-Sep-19 17:55 UTC. Time now 2017-Sep-20 00:27 UTC.
Position N 38°26' W 009°07'.

Length 18 m.

Type: Fishing. MMSI: 255512000.

Date/timePositionNaut miles runAvg speedWind from/ knotsBaromVisibWave heightAir tempDewpointWater temp
2017-Sep-19 17:55N 38°26' W 009°07'0 0.1
2017-Sep-19 17:24N 38°26' W 009°07'0 0.1
2017-Sep-19 17:00N 38°26' W 009°07'3 6.6
2017-Sep-19 16:30N 38°25' W 009°10'4 8.5
2017-Sep-19 15:59N 38°25' W 009°16'4 8.9
2017-Sep-19 15:30N 38°26' W 009°21'5 9.2
2017-Sep-19 14:59N 38°27' W 009°27'4 8.9
2017-Sep-19 14:30N 38°28' W 009°32'5 9.0
2017-Sep-19 14:00N 38°30' W 009°38'4 9.1
2017-Sep-19 13:30N 38°31' W 009°44'7 7.4
2017-Sep-19 12:35N 38°35' W 009°51'3 6.7
2017-Sep-19 12:09N 38°37' W 009°52'1 5.7
2017-Sep-19 12:00N 38°37' W 009°53'2 4.3
2017-Sep-19 11:30N 38°35' W 009°51'0 0.3
2017-Sep-19 11:00N 38°35' W 009°51'0 0.3
2017-Sep-19 10:30N 38°35' W 009°51'0 0.7
2017-Sep-19 10:00N 38°35' W 009°51'0 0.7
2017-Sep-19 09:30N 38°34' W 009°50'0 0.7
2017-Sep-19 09:00N 38°34' W 009°50'0 0.9
2017-Sep-19 08:30N 38°34' W 009°50'0 0.9
2017-Sep-19 08:00N 38°33' W 009°50'0 0.9
2017-Sep-19 07:30N 38°33' W 009°49'0 0.9
2017-Sep-19 07:00N 38°32' W 009°49'0 0.9
2017-Sep-19 06:30N 38°32' W 009°49'0 0.8
2017-Sep-19 06:00N 38°31' W 009°49'2 4.7
2017-Sep-19 05:30N 38°33' W 009°51'4 8.4
2017-Sep-19 05:01N 38°37' W 009°54'3 5.9
2017-Sep-19 04:30N 38°39' W 009°53'3 6.3
2017-Sep-19 04:00N 38°42' W 009°51'1 2.9
2017-Sep-19 03:30N 38°41' W 009°52'0 0.6
2017-Sep-19 03:00N 38°41' W 009°52'0 0.7
2017-Sep-19 02:30N 38°40' W 009°52'0 0.8
2017-Sep-19 02:00N 38°40' W 009°52'0 0.7
2017-Sep-19 01:30N 38°40' W 009°52'1 1.1
2017-Sep-19 01:00N 38°39' W 009°52'0 0.9
2017-Sep-19 00:30N 38°39' W 009°53'0 0.9
2017-Sep-19 00:00N 38°38' W 009°53'1 1.2
2017-Sep-18 23:30N 38°38' W 009°53'1 1.1
2017-Sep-18 23:00N 38°37' W 009°53'1 1.3
2017-Sep-18 22:30N 38°37' W 009°53'1 1.0
2017-Sep-18 22:00N 38°36' W 009°53'1 2.5
2017-Sep-18 21:30N 38°36' W 009°52'4 8.5
2017-Sep-18 20:59N 38°34' W 009°46'4 9.1
2017-Sep-18 20:30N 38°33' W 009°41'5 9.1
2017-Sep-18 20:00N 38°31' W 009°35'4 8.7
2017-Sep-18 19:29N 38°29' W 009°30'4 9.0
2017-Sep-18 19:00N 38°28' W 009°25'4 8.6
2017-Sep-18 18:30N 38°26' W 009°20'4 8.2
2017-Sep-18 18:00N 38°25' W 009°15'4 8.3
2017-Sep-18 17:29N 38°25' W 009°10'3 5.7
2017-Sep-18 17:00N 38°26' W 009°07'0 0.0
2017-Sep-18 16:30N 38°26' W 009°07'0 0.0
2017-Sep-17 21:53N 38°26' W 009°07'0 0.1
2017-Sep-17 21:30N 38°26' W 009°07'0 0.0
2017-Sep-17 21:00N 38°26' W 009°07'3 6.8
2017-Sep-17 20:29N 38°25' W 009°11'4 8.9
2017-Sep-17 20:00N 38°25' W 009°16'5 9.1
2017-Sep-17 19:30N 38°26' W 009°22'4 9.0
2017-Sep-17 19:00N 38°27' W 009°27'5 9.0
2017-Sep-17 18:30N 38°28' W 009°33'7 9.0
2017-Sep-17 17:46N 38°30' W 009°41'2 9.1
2017-Sep-17 17:30N 38°31' W 009°44'5 8.5
2017-Sep-17 16:57N 38°33' W 009°50'3 6.3
2017-Sep-17 16:29N 38°35' W 009°51'1 3.0
2017-Sep-17 16:00N 38°36' W 009°52'1 3.0
2017-Sep-17 15:30N 38°36' W 009°51'0 0.2
2017-Sep-17 15:00N 38°36' W 009°51'0 0.7
2017-Sep-17 14:30N 38°35' W 009°50'0 0.7
2017-Sep-17 14:00N 38°35' W 009°50'0 0.8
2017-Sep-17 13:30N 38°35' W 009°50'0 0.9
2017-Sep-17 13:00N 38°34' W 009°50'0 0.7
2017-Sep-17 12:30N 38°34' W 009°50'1 1.1
2017-Sep-17 12:00N 38°33' W 009°50'0 1.0
2017-Sep-17 11:30N 38°33' W 009°49'0 0.9
2017-Sep-17 11:00N 38°33' W 009°49'0 0.9
2017-Sep-17 10:30N 38°32' W 009°49'0 0.4
2017-Sep-17 10:00N 38°32' W 009°49'1 1.7
2017-Sep-17 09:30N 38°32' W 009°50'5 9.5
2017-Sep-17 09:00N 38°36' W 009°54'7 5.8
2017-Sep-17 07:47N 38°43' W 009°51'1 4.8
2017-Sep-17 07:30N 38°41' W 009°51'1 1.7
2017-Sep-17 06:59N 38°40' W 009°51'0 0.3
2017-Sep-17 06:30N 38°40' W 009°52'0 0.6
2017-Sep-17 06:00N 38°40' W 009°52'0 0.7
2017-Sep-17 05:30N 38°40' W 009°52'0 0.9
2017-Sep-17 05:00N 38°39' W 009°52'0 1.0
2017-Sep-17 04:30N 38°39' W 009°52'0 0.9
2017-Sep-17 04:00N 38°38' W 009°52'1 1.1
2017-Sep-17 03:30N 38°38' W 009°52'1 1.2
2017-Sep-17 03:00N 38°37' W 009°53'1 1.0
2017-Sep-17 02:30N 38°37' W 009°53'1 1.0
2017-Sep-17 02:00N 38°36' W 009°53'0 0.8
2017-Sep-17 01:30N 38°36' W 009°53'3 5.9
2017-Sep-17 00:59N 38°35' W 009°49'4 8.5
2017-Sep-17 00:30N 38°34' W 009°44'4 8.7
2017-Sep-16 23:59N 38°33' W 009°38'4 8.5
2017-Sep-16 23:29N 38°31' W 009°33'4 8.4
2017-Sep-16 23:00N 38°30' W 009°29'4 8.6
2017-Sep-16 22:30N 38°28' W 009°24'5 8.5
2017-Sep-16 21:59N 38°26' W 009°18'4 8.6
2017-Sep-16 21:29N 38°24' W 009°13'5 8.8
2017-Sep-16 20:56N 38°26' W 009°07'1 1.4
2017-Sep-16 20:19N 38°26' W 009°07'  
2017-Sep-14 08:49N 38°26' W 009°07'0 0.0
2017-Sep-14 08:29N 38°26' W 009°07'0 0.0
2017-Sep-14 07:52N 38°26' W 009°07'6 6.8
2017-Sep-14 07:03N 38°24' W 009°13'1 9.0
2017-Sep-14 06:56N 38°24' W 009°15'5 9.1
2017-Sep-14 06:26N 38°26' W 009°20'5 9.2
2017-Sep-14 05:51N 38°27' W 009°27'4 9.1
2017-Sep-14 05:23N 38°29' W 009°32'4 9.4
2017-Sep-14 04:57N 38°30' W 009°37'5 9.2
2017-Sep-14 04:22N 38°31' W 009°43'4 8.9
2017-Sep-14 03:58N 38°32' W 009°48'5 6.7
2017-Sep-14 03:13N 38°36' W 009°51'2 6.6
2017-Sep-14 02:58N 38°38' W 009°52'2 3.8
2017-Sep-14 02:30N 38°36' W 009°51'3 5.2
2017-Sep-14 01:58N 38°34' W 009°50'0 0.2
2017-Sep-14 01:25N 38°34' W 009°50'0 0.2
2017-Sep-14 00:59N 38°34' W 009°50'0 0.5
2017-Sep-14 00:28N 38°33' W 009°50'0 0.4
2017-Sep-14 00:00N 38°33' W 009°50'0 0.6
2017-Sep-13 23:30N 38°33' W 009°50'0 0.4
2017-Sep-13 22:58N 38°33' W 009°50'0 0.8
2017-Sep-13 22:22N 38°32' W 009°50'0 0.9
2017-Sep-13 21:52N 38°32' W 009°49'0 0.7
2017-Sep-13 21:18N 38°32' W 009°49'0 0.8
2017-Sep-13 21:00N 38°31' W 009°49'1 0.9
2017-Sep-13 20:22N 38°31' W 009°49'0 0.9
2017-Sep-13 20:00N 38°30' W 009°49'0 0.8
2017-Sep-13 19:28N 38°30' W 009°49'2 3.3
2017-Sep-13 19:00N 38°31' W 009°47'3 6.2
2017-Sep-13 18:30N 38°33' W 009°51'5 9.2
2017-Sep-13 18:00N 38°36' W 009°55'7 6.7
2017-Sep-13 16:56N 38°43' W 009°51'2 5.6
2017-Sep-13 16:30N 38°41' W 009°51'0 0.4
2017-Sep-13 16:01N 38°40' W 009°51'0 0.6
2017-Sep-13 15:30N 38°40' W 009°51'1 1.2
2017-Sep-13 15:00N 38°40' W 009°51'1 1.4
2017-Sep-13 14:30N 38°39' W 009°52'1 1.1
2017-Sep-13 14:00N 38°38' W 009°52'1 1.0
2017-Sep-13 13:30N 38°38' W 009°52'1 1.2
2017-Sep-13 13:01N 38°37' W 009°52'1 1.2
2017-Sep-13 12:30N 38°37' W 009°52'1 1.1
2017-Sep-13 11:54N 38°36' W 009°53'0 1.2
2017-Sep-13 11:30N 38°36' W 009°53'0 0.5
2017-Sep-13 11:00N 38°36' W 009°53'2 3.5
2017-Sep-13 10:24N 38°35' W 009°51'3 8.3
2017-Sep-13 10:00N 38°34' W 009°47'4 8.6
2017-Sep-13 09:30N 38°33' W 009°41'4 8.6
2017-Sep-13 09:00N 38°31' W 009°36'4 8.7
2017-Sep-13 08:30N 38°30' W 009°31'4 8.8
2017-Sep-13 08:00N 38°28' W 009°26'4 8.7
2017-Sep-13 07:30N 38°27' W 009°21'5 8.9
2017-Sep-13 06:57N 38°25' W 009°15'5 8.5
2017-Sep-13 06:23N 38°25' W 009°08'2 4.4
2017-Sep-13 06:00N 38°26' W 009°07'0 0.0
2017-Sep-13 05:29N 38°26' W 009°07'0 0.0
2017-Sep-13 04:50N 38°26' W 009°07'0 0.0
2017-Sep-11 23:20N 38°26' W 009°07'0 0.3
2017-Sep-11 23:00N 38°26' W 009°07'0 0.2
2017-Sep-11 22:30N 38°26' W 009°07'4 7.9
2017-Sep-11 21:57N 38°24' W 009°12'5 8.7
2017-Sep-11 21:21N 38°26' W 009°18'3 8.8
2017-Sep-11 21:00N 38°26' W 009°22'4 8.8
2017-Sep-11 20:30N 38°27' W 009°27'4 8.6
2017-Sep-11 20:00N 38°28' W 009°33'6 8.7
2017-Sep-11 19:19N 38°30' W 009°40'3 8.6
2017-Sep-11 18:59N 38°31' W 009°43'4 8.4
2017-Sep-11 18:30N 38°32' W 009°48'3 6.6
2017-Sep-11 17:59N 38°35' W 009°51'3 6.7
2017-Sep-11 17:30N 38°38' W 009°52'4 7.3
2017-Sep-11 17:00N 38°34' W 009°50'0 0.3
2017-Sep-11 16:30N 38°34' W 009°50'0 0.2
2017-Sep-11 16:00N 38°34' W 009°50'0 0.4
2017-Sep-11 15:30N 38°34' W 009°50'0 0.5
2017-Sep-11 15:00N 38°34' W 009°50'0 0.6
2017-Sep-11 14:30N 38°33' W 009°50'0 0.8
2017-Sep-11 14:00N 38°33' W 009°50'0 0.4
2017-Sep-11 13:30N 38°33' W 009°50'0 0.8
2017-Sep-11 13:00N 38°32' W 009°50'0 1.0
2017-Sep-11 12:30N 38°32' W 009°49'0 0.7
2017-Sep-11 12:00N 38°32' W 009°49'0 0.8
2017-Sep-11 11:30N 38°31' W 009°49'0 0.7
2017-Sep-11 10:54N 38°31' W 009°49'1 1.5
2017-Sep-11 10:30N 38°32' W 009°49'6 8.3
2017-Sep-11 09:44N 38°36' W 009°54'6 5.9
2017-Sep-11 08:41N 38°42' W 009°51'1 7.2
2017-Sep-11 08:30N 38°41' W 009°51'1 1.6
2017-Sep-11 08:00N 38°40' W 009°51'0 0.3
2017-Sep-11 07:30N 38°40' W 009°51'0 0.6
2017-Sep-11 06:56N 38°40' W 009°51'0 0.8
2017-Sep-11 06:29N 38°39' W 009°52'0 0.9
2017-Sep-11 06:00N 38°39' W 009°52'1 0.9
2017-Sep-11 05:13N 38°38' W 009°52'1 1.1
2017-Sep-11 04:13N 38°37' W 009°53'0 1.1
2017-Sep-11 03:58N 38°37' W 009°53'1 0.7
2017-Sep-11 02:20N 38°36' W 009°53'3 8.4
2017-Sep-11 02:00N 38°35' W 009°50'4 8.8
2017-Sep-11 01:30N 38°34' W 009°44'5 8.5
2017-Sep-11 00:58N 38°32' W 009°39'4 8.7
2017-Sep-11 00:30N 38°31' W 009°34'4 8.5
2017-Sep-11 00:00N 38°29' W 009°29'4 8.7
2017-Sep-10 23:30N 38°28' W 009°24'5 9.1
2017-Sep-10 23:00N 38°26' W 009°19'4 9.0
2017-Sep-10 22:30N 38°24' W 009°13'4 8.9
2017-Sep-10 22:00N 38°26' W 009°08'1 2.1
2017-Sep-10 21:29N 38°26' W 009°07'0 0.0
2017-Sep-10 21:00N 38°26' W 009°07'  
Track history (hours):
 
Tides and Currents Weather Stations Pressure Air Temp Water Temp Dewpoint Dewpoint Depression Visibility Wind Speed Wind Dir Waves Ship Positions

Varamar

Last reported at 2017-Sep-19 17:55 UTC. Time now 2017-Sep-20 00:27 UTC.
Position N 38°26' W 009°07'.

Length 18 m.

Type: Fishing. MMSI: 255512000.

Date/timePositionNaut miles runAvg speedWind from/ knotsBaromVisibWave heightAir tempDewpointWater temp
2017-Sep-19 17:55N 38°26' W 009°07'0 0.1
2017-Sep-19 17:24N 38°26' W 009°07'0 0.1
2017-Sep-19 17:00N 38°26' W 009°07'3 6.6
2017-Sep-19 16:30N 38°25' W 009°10'4 8.5
2017-Sep-19 15:59N 38°25' W 009°16'4 8.9
2017-Sep-19 15:30N 38°26' W 009°21'5 9.2
2017-Sep-19 14:59N 38°27' W 009°27'4 8.9
2017-Sep-19 14:30N 38°28' W 009°32'5 9.0
2017-Sep-19 14:00N 38°30' W 009°38'4 9.1
2017-Sep-19 13:30N 38°31' W 009°44'7 7.4
2017-Sep-19 12:35N 38°35' W 009°51'3 6.7
2017-Sep-19 12:09N 38°37' W 009°52'1 5.7
2017-Sep-19 12:00N 38°37' W 009°53'2 4.3
2017-Sep-19 11:30N 38°35' W 009°51'0 0.3
2017-Sep-19 11:00N 38°35' W 009°51'0 0.3
2017-Sep-19 10:30N 38°35' W 009°51'0 0.7
2017-Sep-19 10:00N 38°35' W 009°51'0 0.7
2017-Sep-19 09:30N 38°34' W 009°50'0 0.7
2017-Sep-19 09:00N 38°34' W 009°50'0 0.9
2017-Sep-19 08:30N 38°34' W 009°50'0 0.9
2017-Sep-19 08:00N 38°33' W 009°50'0 0.9
2017-Sep-19 07:30N 38°33' W 009°49'0 0.9
2017-Sep-19 07:00N 38°32' W 009°49'0 0.9
2017-Sep-19 06:30N 38°32' W 009°49'0 0.8
2017-Sep-19 06:00N 38°31' W 009°49'2 4.7
2017-Sep-19 05:30N 38°33' W 009°51'4 8.4
2017-Sep-19 05:01N 38°37' W 009°54'3 5.9
2017-Sep-19 04:30N 38°39' W 009°53'3 6.3
2017-Sep-19 04:00N 38°42' W 009°51'1 2.9
2017-Sep-19 03:30N 38°41' W 009°52'0 0.6
2017-Sep-19 03:00N 38°41' W 009°52'0 0.7
2017-Sep-19 02:30N 38°40' W 009°52'0 0.8
2017-Sep-19 02:00N 38°40' W 009°52'0 0.7
2017-Sep-19 01:30N 38°40' W 009°52'1 1.1
2017-Sep-19 01:00N 38°39' W 009°52'0 0.9
2017-Sep-19 00:30N 38°39' W 009°53'0 0.9
2017-Sep-19 00:00N 38°38' W 009°53'1 1.2
2017-Sep-18 23:30N 38°38' W 009°53'1 1.1
2017-Sep-18 23:00N 38°37' W 009°53'1 1.3
2017-Sep-18 22:30N 38°37' W 009°53'1 1.0
2017-Sep-18 22:00N 38°36' W 009°53'1 2.5
2017-Sep-18 21:30N 38°36' W 009°52'4 8.5
2017-Sep-18 20:59N 38°34' W 009°46'4 9.1
2017-Sep-18 20:30N 38°33' W 009°41'5 9.1
2017-Sep-18 20:00N 38°31' W 009°35'4 8.7
2017-Sep-18 19:29N 38°29' W 009°30'4 9.0
2017-Sep-18 19:00N 38°28' W 009°25'4 8.6
2017-Sep-18 18:30N 38°26' W 009°20'4 8.2
2017-Sep-18 18:00N 38°25' W 009°15'4 8.3
2017-Sep-18 17:29N 38°25' W 009°10'3 5.7
2017-Sep-18 17:00N 38°26' W 009°07'0 0.0
2017-Sep-18 16:30N 38°26' W 009°07'0 0.0
2017-Sep-17 21:53N 38°26' W 009°07'0 0.1
2017-Sep-17 21:30N 38°26' W 009°07'0 0.0
2017-Sep-17 21:00N 38°26' W 009°07'3 6.8
2017-Sep-17 20:29N 38°25' W 009°11'4 8.9
2017-Sep-17 20:00N 38°25' W 009°16'5 9.1
2017-Sep-17 19:30N 38°26' W 009°22'4 9.0
2017-Sep-17 19:00N 38°27' W 009°27'5 9.0
2017-Sep-17 18:30N 38°28' W 009°33'7 9.0
2017-Sep-17 17:46N 38°30' W 009°41'2 9.1
2017-Sep-17 17:30N 38°31' W 009°44'5 8.5
2017-Sep-17 16:57N 38°33' W 009°50'3 6.3
2017-Sep-17 16:29N 38°35' W 009°51'1 3.0
2017-Sep-17 16:00N 38°36' W 009°52'1 3.0
2017-Sep-17 15:30N 38°36' W 009°51'0 0.2
2017-Sep-17 15:00N 38°36' W 009°51'0 0.7
2017-Sep-17 14:30N 38°35' W 009°50'0 0.7
2017-Sep-17 14:00N 38°35' W 009°50'0 0.8
2017-Sep-17 13:30N 38°35' W 009°50'0 0.9
2017-Sep-17 13:00N 38°34' W 009°50'0 0.7
2017-Sep-17 12:30N 38°34' W 009°50'1 1.1
2017-Sep-17 12:00N 38°33' W 009°50'0 1.0
2017-Sep-17 11:30N 38°33' W 009°49'0 0.9
2017-Sep-17 11:00N 38°33' W 009°49'0 0.9
2017-Sep-17 10:30N 38°32' W 009°49'0 0.4
2017-Sep-17 10:00N 38°32' W 009°49'1 1.7
2017-Sep-17 09:30N 38°32' W 009°50'5 9.5
2017-Sep-17 09:00N 38°36' W 009°54'7 5.8
2017-Sep-17 07:47N 38°43' W 009°51'1 4.8
2017-Sep-17 07:30N 38°41' W 009°51'1 1.7
2017-Sep-17 06:59N 38°40' W 009°51'0 0.3
2017-Sep-17 06:30N 38°40' W 009°52'0 0.6
2017-Sep-17 06:00N 38°40' W 009°52'0 0.7
2017-Sep-17 05:30N 38°40' W 009°52'0 0.9
2017-Sep-17 05:00N 38°39' W 009°52'0 1.0
2017-Sep-17 04:30N 38°39' W 009°52'0 0.9
2017-Sep-17 04:00N 38°38' W 009°52'1 1.1
2017-Sep-17 03:30N 38°38' W 009°52'1 1.2
2017-Sep-17 03:00N 38°37' W 009°53'1 1.0
2017-Sep-17 02:30N 38°37' W 009°53'1 1.0
2017-Sep-17 02:00N 38°36' W 009°53'0 0.8
2017-Sep-17 01:30N 38°36' W 009°53'3 5.9
2017-Sep-17 00:59N 38°35' W 009°49'4 8.5
2017-Sep-17 00:30N 38°34' W 009°44'4 8.7
2017-Sep-16 23:59N 38°33' W 009°38'4 8.5
2017-Sep-16 23:29N 38°31' W 009°33'4 8.4
2017-Sep-16 23:00N 38°30' W 009°29'4 8.6
2017-Sep-16 22:30N 38°28' W 009°24'5 8.5
2017-Sep-16 21:59N 38°26' W 009°18'4 8.6
2017-Sep-16 21:29N 38°24' W 009°13'5 8.8
2017-Sep-16 20:56N 38°26' W 009°07'1 1.4
2017-Sep-16 20:19N 38°26' W 009°07'  
2017-Sep-14 08:49N 38°26' W 009°07'0 0.0
2017-Sep-14 08:29N 38°26' W 009°07'0 0.0
2017-Sep-14 07:52N 38°26' W 009°07'6 6.8
2017-Sep-14 07:03N 38°24' W 009°13'1 9.0
2017-Sep-14 06:56N 38°24' W 009°15'5 9.1
2017-Sep-14 06:26N 38°26' W 009°20'5 9.2
2017-Sep-14 05:51N 38°27' W 009°27'4 9.1
2017-Sep-14 05:23N 38°29' W 009°32'4 9.4
2017-Sep-14 04:57N 38°30' W 009°37'5 9.2
2017-Sep-14 04:22N 38°31' W 009°43'4 8.9
2017-Sep-14 03:58N 38°32' W 009°48'5 6.7
2017-Sep-14 03:13N 38°36' W 009°51'2 6.6
2017-Sep-14 02:58N 38°38' W 009°52'2 3.8
2017-Sep-14 02:30N 38°36' W 009°51'3 5.2
2017-Sep-14 01:58N 38°34' W 009°50'0 0.2
2017-Sep-14 01:25N 38°34' W 009°50'0 0.2
2017-Sep-14 00:59N 38°34' W 009°50'0 0.5
2017-Sep-14 00:28N 38°33' W 009°50'0 0.4
2017-Sep-14 00:00N 38°33' W 009°50'0 0.6
2017-Sep-13 23:30N 38°33' W 009°50'0 0.4
2017-Sep-13 22:58N 38°33' W 009°50'0 0.8
2017-Sep-13 22:22N 38°32' W 009°50'0 0.9
2017-Sep-13 21:52N 38°32' W 009°49'0 0.7
2017-Sep-13 21:18N 38°32' W 009°49'0 0.8
2017-Sep-13 21:00N 38°31' W 009°49'1 0.9
2017-Sep-13 20:22N 38°31' W 009°49'0 0.9
2017-Sep-13 20:00N 38°30' W 009°49'0 0.8
2017-Sep-13 19:28N 38°30' W 009°49'2 3.3
2017-Sep-13 19:00N 38°31' W 009°47'3 6.2
2017-Sep-13 18:30N 38°33' W 009°51'5 9.2
2017-Sep-13 18:00N 38°36' W 009°55'7 6.7
2017-Sep-13 16:56N 38°43' W 009°51'2 5.6
2017-Sep-13 16:30N 38°41' W 009°51'0 0.4
2017-Sep-13 16:01N 38°40' W 009°51'0 0.6
2017-Sep-13 15:30N 38°40' W 009°51'1 1.2
2017-Sep-13 15:00N 38°40' W 009°51'1 1.4
2017-Sep-13 14:30N 38°39' W 009°52'1 1.1
2017-Sep-13 14:00N 38°38' W 009°52'1 1.0
2017-Sep-13 13:30N 38°38' W 009°52'1 1.2
2017-Sep-13 13:01N 38°37' W 009°52'1 1.2
2017-Sep-13 12:30N 38°37' W 009°52'1 1.1
2017-Sep-13 11:54N 38°36' W 009°53'0 1.2
2017-Sep-13 11:30N 38°36' W 009°53'0 0.5
2017-Sep-13 11:00N 38°36' W 009°53'2 3.5
2017-Sep-13 10:24N 38°35' W 009°51'3 8.3
2017-Sep-13 10:00N 38°34' W 009°47'4 8.6
2017-Sep-13 09:30N 38°33' W 009°41'4 8.6
2017-Sep-13 09:00N 38°31' W 009°36'4 8.7
2017-Sep-13 08:30N 38°30' W 009°31'4 8.8
2017-Sep-13 08:00N 38°28' W 009°26'4 8.7
2017-Sep-13 07:30N 38°27' W 009°21'5 8.9
2017-Sep-13 06:57N 38°25' W 009°15'5 8.5
2017-Sep-13 06:23N 38°25' W 009°08'2 4.4
2017-Sep-13 06:00N 38°26' W 009°07'0 0.0
2017-Sep-13 05:29N 38°26' W 009°07'0 0.0
2017-Sep-13 04:50N 38°26' W 009°07'0 0.0
2017-Sep-11 23:20N 38°26' W 009°07'0 0.3
2017-Sep-11 23:00N 38°26' W 009°07'0 0.2
2017-Sep-11 22:30N 38°26' W 009°07'4 7.9
2017-Sep-11 21:57N 38°24' W 009°12'5 8.7
2017-Sep-11 21:21N 38°26' W 009°18'3 8.8
2017-Sep-11 21:00N 38°26' W 009°22'4 8.8
2017-Sep-11 20:30N 38°27' W 009°27'4 8.6
2017-Sep-11 20:00N 38°28' W 009°33'6 8.7
2017-Sep-11 19:19N 38°30' W 009°40'3 8.6
2017-Sep-11 18:59N 38°31' W 009°43'4 8.4
2017-Sep-11 18:30N 38°32' W 009°48'3 6.6
2017-Sep-11 17:59N 38°35' W 009°51'3 6.7
2017-Sep-11 17:30N 38°38' W 009°52'4 7.3
2017-Sep-11 17:00N 38°34' W 009°50'0 0.3
2017-Sep-11 16:30N 38°34' W 009°50'0 0.2
2017-Sep-11 16:00N 38°34' W 009°50'0 0.4
2017-Sep-11 15:30N 38°34' W 009°50'0 0.5
2017-Sep-11 15:00N 38°34' W 009°50'0 0.6
2017-Sep-11 14:30N 38°33' W 009°50'0 0.8
2017-Sep-11 14:00N 38°33' W 009°50'0 0.4
2017-Sep-11 13:30N 38°33' W 009°50'0 0.8
2017-Sep-11 13:00N 38°32' W 009°50'0 1.0
2017-Sep-11 12:30N 38°32' W 009°49'0 0.7
2017-Sep-11 12:00N 38°32' W 009°49'0 0.8
2017-Sep-11 11:30N 38°31' W 009°49'0 0.7
2017-Sep-11 10:54N 38°31' W 009°49'1 1.5
2017-Sep-11 10:30N 38°32' W 009°49'6 8.3
2017-Sep-11 09:44N 38°36' W 009°54'6 5.9
2017-Sep-11 08:41N 38°42' W 009°51'1 7.2
2017-Sep-11 08:30N 38°41' W 009°51'1 1.6
2017-Sep-11 08:00N 38°40' W 009°51'0 0.3
2017-Sep-11 07:30N 38°40' W 009°51'0 0.6
2017-Sep-11 06:56N 38°40' W 009°51'0 0.8
2017-Sep-11 06:29N 38°39' W 009°52'0 0.9
2017-Sep-11 06:00N 38°39' W 009°52'1 0.9
2017-Sep-11 05:13N 38°38' W 009°52'1 1.1
2017-Sep-11 04:13N 38°37' W 009°53'0 1.1
2017-Sep-11 03:58N 38°37' W 009°53'1 0.7
2017-Sep-11 02:20N 38°36' W 009°53'3 8.4
2017-Sep-11 02:00N 38°35' W 009°50'4 8.8
2017-Sep-11 01:30N 38°34' W 009°44'5 8.5
2017-Sep-11 00:58N 38°32' W 009°39'4 8.7
2017-Sep-11 00:30N 38°31' W 009°34'4 8.5
2017-Sep-11 00:00N 38°29' W 009°29'4 8.7
2017-Sep-10 23:30N 38°28' W 009°24'5 9.1
2017-Sep-10 23:00N 38°26' W 009°19'4 9.0
2017-Sep-10 22:30N 38°24' W 009°13'4 8.9
2017-Sep-10 22:00N 38°26' W 009°08'1 2.1
2017-Sep-10 21:29N 38°26' W 009°07'0 0.0
2017-Sep-10 21:00N 38°26' W 009°07'  

Dump ship's entire track history